LFPN

Toussus-le-Noble Airport

Toussus-le-Noble, France
METAR LFPN 191400Z AUTO 36009KT 320V040 CAVOK 17/11 Q1022 NOSIG
Observed Flight Rules
Oct-19 @ 14:00 UTC (18 minutes ago) Visual Flight Rules
Wind Visibility Clouds
360° at 9 knots 10,000+ meters
  • Clear skies
Temperatures Readings
Current 17°C / 63°F
Dewpoint 11°C / 52°F
Humidity 68%
Altimeter 30.18" Hg
Pressure 1022 hPa
Elevation 164
METAR LFPN 191400Z AUTO 36009KT 320V040 CAVOK 17/11 Q1022 NOSIG
Observed Flight Rules
Oct-19 @ 14:00 UTC
(18 minutes ago)
VFR
Wind Visibility
360° at 9 knots 10,000+ meters
Clouds
  • Clear skies
Temperature Dewpoint
17°C / 63°F 11°C / 52°F
Humidity Altimeter Pressure
68% 30.18" Hg 1022 hPa